Latest Weather Observations for Fawkner Beacon

IDV60901

Issued at 9:25 am EST Thursday 31 July 2014 (issued every 10 minutes, with the page automatically refreshed every 10 minutes)

About weather observations | Map of Melbourne area stations | Latest observations for Melbourne area | Other Formats
Station Details ID: 086376 Name: FAWKNER BEACON Lat: -37.91 Lon: 144.93 Height: 17.0 m
Data from the previous 72 hours. | See also: Recent months for locations in Victoria
Date/Time
EST
Tmp

°C
App
Tmp
°C
Dew
Point
°C
Rel
Hum
%
Delta-T

°C
Wind Press
QNH
hPa
Press
MSL
hPa
Rain
since
9 am
mm
Dir
 
Spd
km/h
Gust
km/h
Spd
kts
Gust
kts
31/09:00am - - - - - NNW 65 83 35 45 - - -
31/08:56am - - - - - NNW 65 83 35 45 - - -
31/08:30am - - - - - NNW 65 82 35 44 - - -
31/08:17am - - - - - NNW 61 80 33 43 - - -
31/08:00am - - - - - NNW 63 78 34 42 - - -
31/07:46am - - - - - NNW 61 80 33 43 - - -
31/07:30am - - - - - NNW 65 80 35 43 - - -
31/07:03am - - - - - NW 61 80 33 43 - - -
31/07:00am - - - - - NW 59 76 32 41 - - -
31/06:57am - - - - - NNW 56 76 30 41 - - -
31/06:30am - - - - - NNW 52 65 28 35 - - -
31/06:00am - - - - - NNW 44 52 24 28 - - -
31/05:30am - - - - - N 39 52 21 28 - - -
31/05:00am - - - - - N 35 43 19 23 - - -
31/04:30am - - - - - NNW 44 54 24 29 - - -
31/04:00am - - - - - N 39 46 21 25 - - -
31/03:30am - - - - - NNW 43 54 23 29 - - -
31/03:00am - - - - - NNW 48 59 26 32 - - -
31/02:30am - - - - - NNW 48 61 26 33 - - -
31/02:12am - - - - - NNW 41 59 22 32 - - -
31/02:00am - - - - - NNW 39 46 21 25 - - -
31/01:30am - - - - - NNW 33 44 18 24 - - -
31/01:00am - - - - - NNW 39 48 21 26 - - -
31/12:48am - - - - - N 37 57 20 31 - - -
31/12:30am - - - - - N 37 44 20 24 - - -
31/12:00am - - - - - N 41 46 22 25 - - -
 
Date/Time
EST
Tmp

°C
App
Tmp
°C
Dew
Point
°C
Rel
Hum
%
Delta-T

°C
Wind Press
QNH
hPa
Press
MSL
hPa
Rain
since
9 am
mm
Dir
 
Spd
km/h
Gust
km/h
Spd
kts
Gust
kts
30/11:30pm - - - - - N 44 52 24 28 - - -
30/11:00pm - - - - - NNW 46 57 25 31 - - -
30/10:30pm - - - - - NNW 44 50 24 27 - - -
30/10:00pm - - - - - NNW 41 46 22 25 - - -
30/09:30pm - - - - - NW 39 44 21 24 - - -
30/09:00pm - - - - - NW 39 46 21 25 - - -
30/08:30pm - - - - - NW 39 46 21 25 - - -
30/08:00pm - - - - - NW 39 44 21 24 - - -
30/07:30pm - - - - - NW 43 48 23 26 - - -
30/07:00pm - - - - - NNW 44 52 24 28 - - -
30/06:30pm - - - - - NNW 48 57 26 31 - - -
30/06:00pm - - - - - NW 33 43 18 23 - - -
30/05:30pm - - - - - NNW 41 46 22 25 - - -
30/05:00pm - - - - - NW 37 46 20 25 - - -
30/04:30pm - - - - - WNW 39 46 21 25 - - -
30/04:00pm - - - - - WNW 39 50 21 27 - - -
30/03:30pm - - - - - WNW 43 52 23 28 - - -
30/03:00pm - - - - - WNW 48 61 26 33 - - -
30/02:30pm - - - - - NW 44 50 24 27 - - -
30/02:00pm - - - - - WNW 33 43 18 23 - - -
30/01:30pm - - - - - NW 33 41 18 22 - - -
30/01:00pm - - - - - NW 30 39 16 21 - - -
30/12:30pm - - - - - NW 24 35 13 19 - - -
30/12:00pm - - - - - NW 26 32 14 17 - - -
30/11:30am - - - - - WNW 35 43 19 23 - - -
30/11:00am - - - - - NNW 32 33 17 18 - - -
30/10:30am - - - - - NW 33 44 18 24 - - -
30/10:00am - - - - - NW 32 41 17 22 - - -
30/09:30am - - - - - NW 32 39 17 21 - - -
30/09:00am - - - - - NNW 39 46 21 25 - - -
30/08:30am - - - - - NNW 32 41 17 22 - - -
30/08:00am - - - - - N 26 32 14 17 - - -
30/07:30am - - - - - NNW 24 28 13 15 - - -
30/07:00am - - - - - NNW 26 30 14 16 - - -
30/06:30am - - - - - NW 26 30 14 16 - - -
30/06:00am - - - - - WNW 30 33 16 18 - - -
30/05:30am - - - - - WNW 24 26 13 14 - - -
30/05:00am - - - - - W 24 30 13 16 - - -
30/04:37am - - - - - W 44 63 24 34 - - -
30/04:30am - - - - - W 48 63 26 34 - - -
30/04:20am - - - - - WSW 44 63 24 34 - - -
30/04:10am - - - - - WSW 43 50 23 27 - - -
30/04:00am - - - - - WNW 32 39 17 21 - - -
30/03:30am - - - - - WNW 33 43 18 23 - - -
30/03:00am - - - - - NW 32 41 17 22 - - -
30/02:30am - - - - - WNW 33 41 18 22 - - -
30/02:00am - - - - - WNW 35 41 19 22 - - -
30/01:50am - - - - - WNW 33 43 18 23 - - -
30/01:30am - - - - - W 20 24 11 13 - - -
30/01:00am - - - - - W 26 32 14 17 - - -
30/12:30am - - - - - WNW 37 48 20 26 - - -
30/12:00am - - - - - WNW 35 43 19 23 - - -
 
Date/Time
EST
Tmp

°C
App
Tmp
°C
Dew
Point
°C
Rel
Hum
%
Delta-T

°C
Wind Press
QNH
hPa
Press
MSL
hPa
Rain
since
9 am
mm
Dir
 
Spd
km/h
Gust
km/h
Spd
kts
Gust
kts
29/11:30pm - - - - - WNW 33 39 18 21 - - -
29/11:00pm - - - - - WNW 43 50 23 27 - - -
29/10:35pm - - - - - WNW 41 59 22 32 - - -
29/10:30pm - - - - - WNW 35 48 19 26 - - -
29/10:00pm - - - - - NW 32 44 17 24 - - -
29/09:30pm - - - - - NW 41 50 22 27 - - -
29/09:00pm - - - - - WNW 37 46 20 25 - - -
29/08:30pm - - - - - WNW 43 54 23 29 - - -
29/08:00pm - - - - - NW 33 44 18 24 - - -
29/07:30pm - - - - - NW 39 46 21 25 - - -
29/07:00pm - - - - - NW 39 48 21 26 - - -
29/06:35pm - - - - - NNW 39 59 21 32 - - -
29/06:30pm - - - - - NW 39 43 21 23 - - -
29/06:00pm - - - - - NW 33 43 18 23 - - -
29/05:33pm - - - - - NW 43 61 23 33 - - -
29/05:30pm - - - - - NW 39 52 21 28 - - -
29/05:00pm - - - - - NW 35 43 19 23 - - -
29/04:30pm - - - - - NNW 50 63 27 34 - - -
29/04:00pm - - - - - NNW 46 61 25 33 - - -
29/03:54pm - - - - - NNW 43 61 23 33 - - -
29/03:30pm - - - - - NNW 46 54 25 29 - - -
29/03:00pm - - - - - NNW 50 63 27 34 - - -
29/02:30pm - - - - - NNW 52 63 28 34 - - -
29/02:00pm - - - - - NNW 54 67 29 36 - - -
29/01:30pm - - - - - NNW 50 67 27 36 - - -
29/01:00pm - - - - - NNW 52 65 28 35 - - -
29/12:30pm - - - - - NNW 50 65 27 35 - - -
29/12:20pm - - - - - N 41 65 22 35 - - -
29/12:00pm - - - - - N 41 50 22 27 - - -
29/11:30am - - - - - N 50 57 27 31 - - -
29/11:00am - - - - - N 52 61 28 33 - - -
29/10:30am - - - - - N 52 61 28 33 - - -
29/10:00am - - - - - N 50 61 27 33 - - -
29/09:30am - - - - - N 46 54 25 29 - - -
29/09:00am - - - - - NNW 46 59 25 32 - - -
29/08:30am - - - - - N 46 52 25 28 - - -
29/08:00am - - - - - N 41 48 22 26 - - -
29/07:30am - - - - - N 44 52 24 28 - - -
29/07:00am - - - - - N 48 57 26 31 - - -
29/06:30am - - - - - N 48 59 26 32 - - -
29/06:00am - - - - - N 44 52 24 28 - - -
29/05:30am - - - - - N 44 52 24 28 - - -
29/05:00am - - - - - N 44 50 24 27 - - -
29/04:30am - - - - - N 43 50 23 27 - - -
29/04:00am - - - - - N 37 43 20 23 - - -
29/03:30am - - - - - N 35 41 19 22 - - -
29/03:00am - - - - - N 37 43 20 23 - - -
29/02:30am - - - - - N 39 44 21 24 - - -
29/02:00am - - - - - N 37 43 20 23 - - -
29/01:30am - - - - - N 39 44 21 24 - - -
29/01:00am - - - - - N 43 48 23 26 - - -
29/12:30am - - - - - N 37 43 20 23 - - -
29/12:00am - - - - - N 35 43 19 23 - - -
 
Date/Time
EST
Tmp

°C
App
Tmp
°C
Dew
Point
°C
Rel
Hum
%
Delta-T

°C
Wind Press
QNH
hPa
Press
MSL
hPa
Rain
since
9 am
mm
Dir
 
Spd
km/h
Gust
km/h
Spd
kts
Gust
kts
28/11:30pm - - - - - N 37 43 20 23 - - -
28/11:00pm - - - - - N 37 44 20 24 - - -
28/10:30pm - - - - - N 35 43 19 23 - - -
28/10:00pm - - - - - N 39 46 21 25 - - -
28/09:30pm - - - - - N 43 48 23 26 - - -
28/09:00pm - - - - - N 37 43 20 23 - - -
28/08:30pm - - - - - NNW 41 48 22 26 - - -
28/08:00pm - - - - - NNW 43 50 23 27 - - -
28/07:30pm - - - - - N 39 46 21 25 - - -
28/07:00pm - - - - - N 30 33 16 18 - - -
28/06:30pm - - - - - N 33 43 18 23 - - -
28/06:00pm - - - - - NNW 41 44 22 24 - - -
28/05:30pm - - - - - NNW 39 46 21 25 - - -
28/05:00pm - - - - - NW 26 33 14 18 - - -
28/04:30pm - - - - - WNW 22 26 12 14 - - -
28/04:29pm - - - - - NW 22 26 12 14 - - -
28/04:00pm - - - - - NNW 39 44 21 24 - - -
28/03:30pm - - - - - N 46 52 25 28 - - -
28/03:00pm - - - - - N 39 46 21 25 - - -
28/02:30pm - - - - - N 43 48 23 26 - - -
28/02:00pm - - - - - N 43 50 23 27 - - -
28/01:30pm - - - - - N 43 48 23 26 - - -
28/01:00pm - - - - - N 41 46 22 25 - - -
28/12:30pm - - - - - NNW 43 46 23 25 - - -
28/12:00pm - - - - - NNW 41 44 22 24 - - -
28/11:30am - - - - - NNW 37 46 20 25 - - -
28/11:00am - - - - - N 43 50 23 27 - - -
28/10:30am - - - - - NNW 43 52 23 28 - - -
28/10:00am - - - - - N 48 57 26 31 - - -
28/09:30am - - - - - N 46 54 25 29 - - -

Latest Capital City Observations: Canberra | Sydney | Melbourne | Brisbane | Adelaide | Perth | Hobart | Darwin

Other Formats:

Comma delimited format used in spreadsheet applications
http://www.bom.gov.au/fwo/IDV60901/IDV60901.95872.axf

JavaScript Object Notation format (JSON) in row-major order
http://www.bom.gov.au/fwo/IDV60901/IDV60901.95872.json